createdAt,value
2019-01-09T00:00:48.173Z,92.57
2019-01-09T00:01:48.139Z,93.19
2019-01-09T00:02:48.122Z,92.68
2019-01-09T00:03:48.105Z,93.29
2019-01-09T00:04:48.122Z,93.40
2019-01-09T00:05:48.103Z,93.40
2019-01-09T00:06:48.071Z,93.08
2019-01-09T00:07:48.056Z,92.57
2019-01-09T00:08:48.049Z,92.78
2019-01-09T00:09:48.064Z,92.98
2019-01-09T00:10:48.085Z,92.78
2019-01-09T00:11:48.040Z,92.57
2019-01-09T00:12:48.008Z,92.88
2019-01-09T00:13:48.006Z,92.57
2019-01-09T00:14:47.991Z,92.88
2019-01-09T00:15:47.980Z,91.85
2019-01-09T00:16:47.960Z,92.63
2019-01-09T00:17:47.976Z,91.74
2019-01-09T00:18:47.946Z,91.80
2019-01-09T00:19:47.951Z,92.26
2019-01-09T00:20:47.915Z,91.95
2019-01-09T00:21:47.947Z,91.95
2019-01-09T00:22:47.933Z,91.74
2019-01-09T00:23:47.885Z,91.53
2019-01-09T00:24:47.884Z,91.53
2019-01-09T00:25:47.862Z,91.91
2019-01-09T00:26:47.854Z,91.64
2019-01-09T00:27:47.931Z,91.91
2019-01-09T00:28:47.886Z,91.74
2019-01-09T00:29:47.812Z,91.28
2019-01-09T00:30:47.800Z,91.64
2019-01-09T00:31:47.841Z,91.95
2019-01-09T00:32:47.796Z,91.95
2019-01-09T00:33:47.821Z,92.68
2019-01-09T00:34:47.767Z,92.98
2019-01-09T00:35:47.781Z,93.19
2019-01-09T00:36:47.761Z,92.93
2019-01-09T00:37:47.736Z,93.81
2019-01-09T00:38:47.735Z,93.54
2019-01-09T00:39:47.708Z,93.96
2019-01-09T00:40:47.694Z,93.54
2019-01-09T00:41:47.705Z,93.54
2019-01-09T00:42:47.700Z,93.85
2019-01-09T00:43:47.704Z,94.89
2019-01-09T00:44:47.647Z,94.68
2019-01-09T00:45:47.649Z,95.20
2019-01-09T00:46:47.651Z,94.06
2019-01-09T00:47:47.625Z,94.06
2019-01-09T00:48:47.638Z,94.79
2019-01-09T00:49:47.594Z,94.89
2019-01-09T00:50:47.585Z,94.79
2019-01-09T00:51:47.581Z,95.10
2019-01-09T00:52:47.579Z,94.68
2019-01-09T00:53:47.646Z,94.73
2019-01-09T00:54:47.613Z,95.20
2019-01-09T00:55:47.548Z,94.84
2019-01-09T00:56:47.568Z,95.20
2019-01-09T00:57:47.510Z,95.31
2019-01-09T00:58:47.580Z,94.73
2019-01-09T00:59:47.496Z,95.20
2019-01-09T01:00:47.484Z,95.25
2019-01-09T01:01:47.492Z,95.31
2019-01-09T01:02:47.491Z,95.72
2019-01-09T01:03:48.476Z,95.56
2019-01-09T01:04:47.437Z,95.46
2019-01-09T01:05:47.432Z,95.98
2019-01-09T01:06:47.442Z,95.67
2019-01-09T01:07:47.425Z,95.77
2019-01-09T01:08:47.399Z,96.39
2019-01-09T01:09:47.402Z,96.39
2019-01-09T01:10:47.379Z,97.02
2019-01-09T01:11:47.371Z,96.70
2019-01-09T01:12:47.368Z,96.81
2019-01-09T01:13:47.347Z,96.60
2019-01-09T01:14:47.338Z,97.27
2019-01-09T01:15:47.334Z,97.16
2019-01-09T01:16:47.311Z,97.02
2019-01-09T01:17:47.304Z,96.29
2019-01-09T01:18:47.311Z,95.87
2019-01-09T01:19:47.312Z,96.39
2019-01-09T01:20:47.298Z,96.19
2019-01-09T01:21:47.315Z,96.91
2019-01-09T01:22:47.250Z,96.81
2019-01-09T01:23:47.246Z,96.85
2019-01-09T01:24:47.241Z,96.75
2019-01-09T01:25:47.233Z,97.02
2019-01-09T01:26:47.206Z,97.12
2019-01-09T01:27:47.234Z,97.12
2019-01-09T01:28:47.216Z,96.95
2019-01-09T01:29:47.180Z,96.81
2019-01-09T01:30:47.183Z,97.53
2019-01-09T01:31:47.263Z,97.22
2019-01-09T01:32:47.146Z,96.91
2019-01-09T01:33:47.230Z,96.91
2019-01-09T01:34:47.142Z,97.53
2019-01-09T01:35:54.517Z,96.39
2019-01-09T01:36:48.097Z,96.95
2019-01-09T01:37:47.101Z,96.81
2019-01-09T01:38:47.089Z,97.12
2019-01-09T01:39:47.203Z,96.91
2019-01-09T01:40:47.111Z,97.22
2019-01-09T01:41:47.053Z,96.81
2019-01-09T01:42:47.036Z,97.02
2019-01-09T01:43:47.065Z,96.19
2019-01-09T01:44:47.045Z,96.19
2019-01-09T01:45:47.053Z,95.87
2019-01-09T01:46:47.000Z,95.77
2019-01-09T01:47:46.985Z,95.77
2019-01-09T01:48:46.971Z,96.08
2019-01-09T01:49:47.012Z,95.87
2019-01-09T01:50:46.964Z,95.77
2019-01-09T01:51:46.951Z,96.29
2019-01-09T01:52:46.939Z,95.25
2019-01-09T01:53:46.917Z,95.25
2019-01-09T01:54:46.922Z,95.25
2019-01-09T01:55:46.907Z,95.61
2019-01-09T01:56:46.889Z,95.40
2019-01-09T01:57:46.878Z,96.12
2019-01-09T01:58:46.869Z,95.19
2019-01-09T01:59:46.866Z,95.04
2019-01-09T02:00:46.886Z,95.15
2019-01-09T02:01:46.823Z,96.12
2019-01-09T02:02:46.843Z,95.50
2019-01-09T02:03:46.817Z,95.81
2019-01-09T02:04:46.810Z,95.25
2019-01-09T02:05:46.811Z,95.25
2019-01-09T02:06:46.776Z,95.40
2019-01-09T02:07:46.762Z,95.46
2019-01-09T02:08:46.766Z,95.71
2019-01-09T02:09:46.748Z,95.04
2019-01-09T02:10:46.834Z,94.94
2019-01-09T02:11:46.753Z,94.73
2019-01-09T02:12:46.816Z,95.04
2019-01-09T02:13:46.711Z,94.73
2019-01-09T02:14:46.722Z,95.15
2019-01-09T02:15:46.751Z,94.63
2019-01-09T02:16:46.692Z,95.04
2019-01-09T02:17:46.667Z,95.04
2019-01-09T02:18:46.650Z,95.04
2019-01-09T02:19:46.639Z,95.15
2019-01-09T02:20:46.652Z,94.73
2019-01-09T02:21:46.636Z,95.36
2019-01-09T02:22:46.611Z,95.15
2019-01-09T02:23:46.609Z,94.94
2019-01-09T02:24:46.593Z,95.25
2019-01-09T02:25:46.596Z,94.73
2019-01-09T02:26:46.580Z,94.73
2019-01-09T02:27:46.550Z,95.25
2019-01-09T02:28:46.544Z,94.73
2019-01-09T02:29:46.541Z,95.25
2019-01-09T02:30:46.525Z,94.94
2019-01-09T02:31:46.564Z,95.25
2019-01-09T02:32:46.505Z,94.53
2019-01-09T02:33:46.484Z,95.04
2019-01-09T02:34:46.481Z,95.04
2019-01-09T02:35:46.476Z,95.04
2019-01-09T02:36:46.517Z,94.94
2019-01-09T02:37:46.438Z,95.15
2019-01-09T02:38:46.448Z,94.53
2019-01-09T02:39:46.425Z,93.80
2019-01-09T02:40:46.415Z,93.70
2019-01-09T02:41:46.413Z,93.90
2019-01-09T02:42:46.409Z,93.90
2019-01-09T02:43:46.377Z,93.59
2019-01-09T02:44:46.374Z,93.38
2019-01-09T02:45:46.369Z,93.49
2019-01-09T02:46:46.358Z,93.90
2019-01-09T02:47:46.377Z,93.90
2019-01-09T02:48:48.538Z,93.70
2019-01-09T02:49:46.354Z,93.70
2019-01-09T02:50:46.330Z,93.75
2019-01-09T02:51:46.332Z,93.70
2019-01-09T02:52:46.358Z,93.70
2019-01-09T02:53:46.314Z,93.90
2019-01-09T02:54:46.298Z,93.90
2019-01-09T02:55:46.270Z,93.80
2019-01-09T02:56:46.268Z,93.80
2019-01-09T02:57:56.258Z,93.18
2019-01-09T02:58:47.218Z,93.28
2019-01-09T02:59:46.211Z,93.18
2019-01-09T03:00:46.196Z,92.45
2019-01-09T03:01:46.221Z,92.35
2019-01-09T03:02:46.204Z,92.80
2019-01-09T03:03:46.189Z,92.76
2019-01-09T03:04:46.160Z,93.28
2019-01-09T03:05:46.144Z,93.07
2019-01-09T03:06:46.157Z,92.86
2019-01-09T03:07:46.125Z,93.28
2019-01-09T03:08:46.124Z,93.28
2019-01-09T03:09:46.109Z,92.86
2019-01-09T03:10:46.088Z,92.03
2019-01-09T03:11:46.124Z,92.97
2019-01-09T03:12:46.072Z,92.14
2019-01-09T03:13:46.061Z,92.45
2019-01-09T03:14:46.076Z,91.93
2019-01-09T03:15:46.045Z,92.76
2019-01-09T03:16:46.032Z,92.97
2019-01-09T03:17:46.009Z,92.35
2019-01-09T03:18:46.004Z,92.35
2019-01-09T03:19:45.998Z,93.07
2019-01-09T03:20:46.028Z,93.07
2019-01-09T03:21:46.024Z,92.76
2019-01-09T03:22:46.027Z,92.66
2019-01-09T03:23:45.944Z,93.18
2019-01-09T03:24:45.942Z,93.07
2019-01-09T03:25:45.945Z,93.38
2019-01-09T03:26:45.923Z,93.07
2019-01-09T03:27:45.908Z,93.49
2019-01-09T03:28:45.915Z,93.49
2019-01-09T03:29:45.875Z,93.18
2019-01-09T03:30:45.889Z,92.76
2019-01-09T03:31:45.872Z,93.38
2019-01-09T03:32:45.844Z,93.90
2019-01-09T03:33:45.847Z,94.21
2019-01-09T03:34:45.867Z,94.46
2019-01-09T03:35:45.829Z,93.95
2019-01-09T03:36:45.841Z,93.63
2019-01-09T03:37:45.799Z,93.90
2019-01-09T03:38:45.801Z,94.11
2019-01-09T03:39:45.804Z,94.57
2019-01-09T03:40:45.767Z,94.05
2019-01-09T03:41:45.746Z,94.67
2019-01-09T03:42:45.763Z,94.84
2019-01-09T03:43:45.739Z,94.36
2019-01-09T03:44:45.728Z,94.67
2019-01-09T03:45:45.715Z,94.26
2019-01-09T03:46:45.697Z,94.57
2019-01-09T03:47:45.709Z,94.67
2019-01-09T03:48:45.697Z,94.15
2019-01-09T03:49:45.683Z,94.78
2019-01-09T03:50:45.663Z,94.67
2019-01-09T03:51:45.647Z,94.88
2019-01-09T03:52:45.659Z,95.19
2019-01-09T03:53:45.640Z,94.98
2019-01-09T03:54:45.613Z,95.29
2019-01-09T03:55:45.622Z,94.82
2019-01-09T03:56:45.615Z,95.65
2019-01-09T03:57:45.615Z,95.13
2019-01-09T03:58:45.585Z,95.23
2019-01-09T03:59:45.758Z,95.44
2019-01-09T04:00:45.569Z,95.44
2019-01-09T04:01:45.552Z,95.54
2019-01-09T04:02:45.545Z,95.44
2019-01-09T04:03:45.554Z,95.75
2019-01-09T04:04:45.529Z,95.75
2019-01-09T04:05:45.603Z,95.65
2019-01-09T04:06:45.529Z,95.34
2019-01-09T04:07:45.482Z,95.34
2019-01-09T04:08:45.487Z,95.38
2019-01-09T04:09:45.451Z,95.54
2019-01-09T04:10:45.476Z,95.75
2019-01-09T04:11:45.451Z,95.44
2019-01-09T04:12:45.436Z,95.65
2019-01-09T04:13:45.428Z,95.69
2019-01-09T04:14:45.423Z,95.75
2019-01-09T04:15:45.387Z,95.28
2019-01-09T04:16:45.380Z,96.42
2019-01-09T04:17:45.468Z,95.59
2019-01-09T04:18:45.371Z,95.59
2019-01-09T04:19:45.364Z,95.48
2019-01-09T04:20:45.427Z,95.69
2019-01-09T04:21:45.336Z,95.48
2019-01-09T04:22:45.312Z,95.28
2019-01-09T04:23:45.323Z,96.00
2019-01-09T04:24:45.297Z,95.38
2019-01-09T04:25:45.303Z,95.48
2019-01-09T04:26:45.299Z,96.17
2019-01-09T04:27:45.278Z,95.44
2019-01-09T04:28:45.249Z,95.86
2019-01-09T04:29:45.290Z,95.34
2019-01-09T04:30:45.334Z,95.54
2019-01-09T04:31:45.249Z,95.34
2019-01-09T04:32:45.237Z,94.82
2019-01-09T04:33:45.236Z,95.13
2019-01-09T04:34:45.186Z,95.13
2019-01-09T04:35:45.174Z,94.92
2019-01-09T04:36:51.362Z,94.92
2019-01-09T04:37:46.246Z,95.13
2019-01-09T04:38:45.150Z,94.92
2019-01-09T04:39:45.133Z,95.03
2019-01-09T04:40:45.134Z,94.82
2019-01-09T04:41:45.131Z,94.71
2019-01-09T04:42:45.172Z,94.40
2019-01-09T04:43:45.114Z,94.82
2019-01-09T04:44:45.081Z,94.40
2019-01-09T04:45:45.083Z,94.92
2019-01-09T04:46:45.072Z,94.82
2019-01-09T04:47:45.060Z,93.88
2019-01-09T04:48:45.111Z,94.40
2019-01-09T04:49:45.045Z,94.09
2019-01-09T04:50:45.018Z,94.82
2019-01-09T04:51:45.016Z,94.20
2019-01-09T04:52:44.987Z,93.88
2019-01-09T04:53:45.028Z,94.40
2019-01-09T04:54:45.058Z,94.51
2019-01-09T04:55:44.993Z,93.95
2019-01-09T04:56:44.982Z,94.88
2019-01-09T04:57:44.949Z,94.98
2019-01-09T04:58:44.958Z,94.36
2019-01-09T04:59:44.930Z,94.71
2019-01-09T05:00:44.925Z,93.84
2019-01-09T05:01:44.923Z,93.53
2019-01-09T05:02:44.946Z,94.09
2019-01-09T05:03:44.890Z,93.88
2019-01-09T05:04:44.879Z,93.57
2019-01-09T05:05:44.902Z,93.99
2019-01-09T05:06:45.014Z,94.40
2019-01-09T05:07:44.858Z,93.99
2019-01-09T05:08:44.865Z,93.99
2019-01-09T05:09:44.834Z,94.82
2019-01-09T05:10:44.816Z,94.61
2019-01-09T05:11:44.792Z,94.40
2019-01-09T05:12:44.807Z,94.82
2019-01-09T05:13:44.805Z,94.71
2019-01-09T05:14:44.831Z,95.17
2019-01-09T05:15:44.813Z,95.38
2019-01-09T05:16:44.784Z,95.07
2019-01-09T05:17:44.751Z,95.07
2019-01-09T05:18:44.743Z,95.69
2019-01-09T05:19:44.743Z,95.38
2019-01-09T05:20:44.731Z,96.11
2019-01-09T05:21:44.690Z,95.90
2019-01-09T05:22:44.708Z,95.11
2019-01-09T05:23:44.785Z,95.32
2019-01-09T05:24:45.722Z,95.32
2019-01-09T05:25:44.706Z,95.42
2019-01-09T05:26:44.649Z,95.42
2019-01-09T05:27:44.622Z,96.04
2019-01-09T05:28:44.618Z,95.53
2019-01-09T05:29:44.651Z,96.15
2019-01-09T05:30:44.588Z,96.30
2019-01-09T05:31:44.620Z,96.57
2019-01-09T05:32:44.588Z,97.19
2019-01-09T05:33:44.567Z,96.98
2019-01-09T05:34:44.545Z,97.19
2019-01-09T05:35:44.536Z,97.24
2019-01-09T05:36:44.544Z,96.88
2019-01-09T05:37:44.554Z,97.44
2019-01-09T05:38:44.509Z,97.44
2019-01-09T05:39:44.521Z,97.24
2019-01-09T05:40:44.490Z,97.13
2019-01-09T05:41:44.478Z,97.44
2019-01-09T05:42:44.499Z,97.44
2019-01-09T05:43:44.470Z,97.30
2019-01-09T05:44:44.461Z,97.61
2019-01-09T05:45:44.477Z,97.81
2019-01-09T05:46:44.426Z,97.81
2019-01-09T05:47:44.457Z,97.92
2019-01-09T05:48:44.424Z,97.81
2019-01-09T05:49:44.445Z,97.81
2019-01-09T05:50:44.399Z,97.81
2019-01-09T05:51:44.415Z,97.92
2019-01-09T05:52:44.375Z,97.92
2019-01-09T05:53:44.358Z,97.96
2019-01-09T05:54:44.330Z,97.40
2019-01-09T05:55:44.388Z,97.75
2019-01-09T05:56:44.403Z,97.50
2019-01-09T05:57:44.402Z,97.50
2019-01-09T05:58:44.370Z,97.55
2019-01-09T05:59:44.324Z,97.50
2019-01-09T06:00:44.295Z,97.40
2019-01-09T06:01:44.256Z,97.50
2019-01-09T06:02:44.270Z,97.81
2019-01-09T06:03:44.279Z,97.50
2019-01-09T06:04:44.365Z,97.81
2019-01-09T06:05:44.214Z,98.44
2019-01-09T06:06:44.283Z,98.02
2019-01-09T06:07:44.296Z,98.54
2019-01-09T06:08:44.181Z,98.33
2019-01-09T06:09:44.185Z,98.02
2019-01-09T06:10:44.210Z,97.81
2019-01-09T06:11:44.222Z,97.71
2019-01-09T06:12:44.207Z,97.50
2019-01-09T06:13:44.132Z,97.92
2019-01-09T06:14:44.152Z,96.41
2019-01-09T06:15:44.152Z,96.09
2019-01-09T06:16:44.120Z,95.57
2019-01-09T06:17:44.093Z,94.78
2019-01-09T06:18:44.090Z,95.35
2019-01-09T06:19:44.067Z,95.23
2019-01-09T06:20:44.085Z,96.58
2019-01-09T06:21:44.054Z,96.69
2019-01-09T06:22:44.039Z,96.62
2019-01-09T06:23:44.025Z,97.04
2019-01-09T06:24:44.054Z,97.46
2019-01-09T06:25:44.021Z,97.81
2019-01-09T06:26:43.994Z,98.02
2019-01-09T06:27:43.988Z,98.65
2019-01-09T06:28:43.998Z,98.55
2019-01-09T06:29:43.968Z,99.17
2019-01-09T06:30:43.966Z,99.07
2019-01-09T06:31:43.959Z,99.59
2019-01-09T06:32:43.952Z,99.17
2019-01-09T06:33:43.927Z,99.07
2019-01-09T06:34:43.946Z,99.07
2019-01-09T06:35:43.954Z,99.27
2019-01-09T06:36:43.910Z,99.59
2019-01-09T06:37:43.889Z,99.99
2019-01-09T06:38:43.908Z,99.95
2019-01-09T06:39:43.850Z,99.80
2019-01-09T06:40:43.842Z,99.90
2019-01-09T06:41:43.953Z,99.95
2019-01-09T06:42:43.846Z,99.84
2019-01-09T06:43:43.818Z,99.63
2019-01-09T06:44:43.818Z,99.68
2019-01-09T06:45:43.818Z,99.68
2019-01-09T06:46:43.817Z,99.79
2019-01-09T06:47:43.776Z,99.99
2019-01-09T06:48:43.778Z,99.99
2019-01-09T06:49:43.792Z,99.99
2019-01-09T06:50:43.783Z,99.99
2019-01-09T06:51:43.733Z,99.99
2019-01-09T06:52:43.747Z,99.99
2019-01-09T06:53:43.741Z,99.99
2019-01-09T06:54:43.728Z,99.99
2019-01-09T06:55:43.702Z,99.99
2019-01-09T06:56:43.683Z,99.99
2019-01-09T06:57:43.663Z,99.99
2019-01-09T06:58:43.650Z,99.99
2019-01-09T06:59:43.651Z,99.99
2019-01-09T07:00:43.623Z,99.99
2019-01-09T07:01:43.638Z,99.99
2019-01-09T07:02:43.613Z,99.99
2019-01-09T07:03:43.603Z,99.99
2019-01-09T07:04:44.753Z,99.99
2019-01-09T07:05:43.576Z,99.99
2019-01-09T07:06:43.561Z,99.99
2019-01-09T07:07:43.556Z,99.99
2019-01-09T07:08:43.614Z,99.99
2019-01-09T07:09:43.562Z,99.99
2019-01-09T07:10:43.525Z,99.95
2019-01-09T07:11:43.565Z,99.84
2019-01-09T07:12:43.507Z,99.99
2019-01-09T07:13:43.609Z,99.99
2019-01-09T07:14:43.503Z,99.99
2019-01-09T07:15:43.502Z,99.99
2019-01-09T07:16:43.471Z,99.99
2019-01-09T07:17:43.481Z,99.99
2019-01-09T07:18:43.429Z,99.99
2019-01-09T07:19:43.447Z,99.99
2019-01-09T07:20:43.459Z,99.99
2019-01-09T07:21:45.651Z,99.99
2019-01-09T07:22:43.393Z,99.99
2019-01-09T07:23:43.410Z,99.99
2019-01-09T07:24:43.472Z,99.99
2019-01-09T07:25:43.434Z,99.99
2019-01-09T07:26:43.389Z,99.99
2019-01-09T07:27:43.359Z,99.95
2019-01-09T07:28:43.343Z,99.99
2019-01-09T07:29:43.332Z,99.99
2019-01-09T07:30:43.324Z,99.99
2019-01-09T07:31:43.351Z,99.99
2019-01-09T07:32:43.272Z,99.99
2019-01-09T07:33:43.407Z,99.99
2019-01-09T07:34:43.330Z,99.99
2019-01-09T07:35:43.271Z,99.99
2019-01-09T07:36:43.301Z,99.99
2019-01-09T07:37:45.361Z,99.99
2019-01-09T07:38:43.216Z,99.99
2019-01-09T07:39:43.202Z,99.99
2019-01-09T07:40:43.201Z,99.99
2019-01-09T07:41:43.177Z,99.99
2019-01-09T07:42:43.199Z,99.99
2019-01-09T07:43:43.187Z,99.99
2019-01-09T07:44:43.196Z,99.99
2019-01-09T07:45:43.171Z,99.99
2019-01-09T07:46:43.185Z,99.99
2019-01-09T07:47:43.154Z,99.99
2019-01-09T07:48:43.107Z,99.99
2019-01-09T07:49:43.099Z,99.99
2019-01-09T07:50:43.087Z,99.99
2019-01-09T07:51:43.077Z,99.99
2019-01-09T07:52:43.073Z,99.99
2019-01-09T07:53:43.073Z,99.99
2019-01-09T07:54:43.054Z,99.99
2019-01-09T07:55:43.030Z,99.99
2019-01-09T07:56:43.020Z,99.99
2019-01-09T07:57:43.024Z,99.99
2019-01-09T07:58:43.039Z,99.99
2019-01-09T07:59:42.995Z,99.99
2019-01-09T08:00:43.021Z,99.99
2019-01-09T08:01:42.972Z,99.99
2019-01-09T08:02:42.970Z,99.99
2019-01-09T08:03:42.959Z,99.99
2019-01-09T08:04:42.933Z,99.99
2019-01-09T08:05:42.941Z,99.99
2019-01-09T08:06:42.920Z,99.99
2019-01-09T08:07:42.934Z,99.99
2019-01-09T08:08:42.922Z,99.99
2019-01-09T08:09:42.890Z,99.99
2019-01-09T08:10:42.870Z,99.99
2019-01-09T08:11:42.865Z,99.99
2019-01-09T08:12:42.854Z,99.99
2019-01-09T08:13:42.870Z,99.87
2019-01-09T08:14:42.827Z,99.99
2019-01-09T08:15:42.821Z,99.76
2019-01-09T08:16:42.877Z,99.66
2019-01-09T08:17:42.799Z,99.72
2019-01-09T08:18:42.825Z,99.99
2019-01-09T08:19:42.818Z,99.99
2019-01-09T08:20:42.782Z,99.62
2019-01-09T08:21:42.776Z,99.66
2019-01-09T08:22:42.750Z,99.41
2019-01-09T08:23:42.742Z,99.62
2019-01-09T08:24:42.728Z,99.10
2019-01-09T08:25:42.731Z,99.30
2019-01-09T08:26:42.699Z,99.41
2019-01-09T08:27:42.708Z,98.78
2019-01-09T08:28:42.702Z,98.57
2019-01-09T08:29:42.703Z,98.47
2019-01-09T08:30:42.679Z,98.32
2019-01-09T08:31:42.688Z,98.36
2019-01-09T08:32:42.659Z,98.16
2019-01-09T08:33:42.628Z,98.05
2019-01-09T08:34:42.628Z,98.16
2019-01-09T08:35:42.613Z,98.26
2019-01-09T08:36:42.589Z,98.68
2019-01-09T08:37:42.586Z,98.68
2019-01-09T08:38:42.577Z,99.10
2019-01-09T08:39:42.560Z,98.68
2019-01-09T08:40:42.575Z,98.84
2019-01-09T08:41:42.558Z,98.78
2019-01-09T08:42:42.526Z,98.84
2019-01-09T08:43:42.527Z,98.88
2019-01-09T08:44:42.521Z,98.53
2019-01-09T08:45:42.522Z,98.11
2019-01-09T08:46:42.672Z,98.26
2019-01-09T08:47:42.477Z,98.47
2019-01-09T08:48:42.459Z,98.16
2019-01-09T08:49:42.463Z,97.80
2019-01-09T08:50:42.472Z,98.22
2019-01-09T08:51:42.478Z,98.43
2019-01-09T08:52:42.446Z,98.63
2019-01-09T08:53:42.436Z,98.84
2019-01-09T08:54:42.427Z,98.43
2019-01-09T08:55:42.532Z,98.74
2019-01-09T08:56:42.435Z,98.90
2019-01-09T08:57:42.453Z,97.91
2019-01-09T08:58:42.409Z,98.27
2019-01-09T08:59:42.365Z,98.07
2019-01-09T09:00:42.331Z,98.07
2019-01-09T09:01:42.404Z,98.48
2019-01-09T09:02:42.345Z,98.27
2019-01-09T09:03:42.307Z,98.48
2019-01-09T09:04:42.330Z,98.27
2019-01-09T09:05:42.336Z,98.38
2019-01-09T09:06:42.396Z,98.02
2019-01-09T09:07:42.347Z,97.65
2019-01-09T09:08:42.256Z,97.55
2019-01-09T09:09:42.250Z,97.65
2019-01-09T09:10:42.252Z,97.61
2019-01-09T09:11:42.234Z,97.50
2019-01-09T09:12:42.340Z,97.71
2019-01-09T09:13:42.212Z,97.61
2019-01-09T09:14:42.223Z,97.65
2019-01-09T09:15:42.183Z,97.86
2019-01-09T09:16:42.239Z,97.34
2019-01-09T09:17:42.187Z,97.40
2019-01-09T09:18:42.151Z,97.75
2019-01-09T09:19:42.133Z,97.55
2019-01-09T09:20:42.169Z,97.65
2019-01-09T09:21:42.121Z,97.50
2019-01-09T09:22:42.111Z,97.86
2019-01-09T09:23:42.113Z,97.81
2019-01-09T09:24:42.084Z,97.92
2019-01-09T09:25:42.066Z,97.92
2019-01-09T09:26:42.055Z,97.71
2019-01-09T09:27:42.254Z,97.92
2019-01-09T09:28:42.056Z,97.61
2019-01-09T09:29:42.038Z,97.40
2019-01-09T09:30:42.018Z,96.98
2019-01-09T09:31:42.005Z,96.98
2019-01-09T09:32:42.024Z,97.09
2019-01-09T09:33:41.996Z,96.78
2019-01-09T09:34:41.990Z,96.98
2019-01-09T09:35:42.001Z,96.88
2019-01-09T09:36:41.961Z,96.78
2019-01-09T09:37:41.968Z,96.67
2019-01-09T09:38:41.936Z,96.67
2019-01-09T09:39:41.926Z,95.73
2019-01-09T09:40:41.910Z,95.38
2019-01-09T09:41:41.897Z,95.17
2019-01-09T09:42:41.901Z,95.48
2019-01-09T09:43:41.878Z,95.59
2019-01-09T09:44:41.864Z,95.23
2019-01-09T09:45:41.891Z,95.65
2019-01-09T09:46:41.851Z,95.46
2019-01-09T09:47:41.845Z,95.25
2019-01-09T09:48:41.823Z,94.63
2019-01-09T09:49:41.832Z,93.59
2019-01-09T09:50:41.860Z,93.84
2019-01-09T09:51:42.119Z,93.38
2019-01-09T09:52:41.796Z,93.84
2019-01-09T09:53:41.795Z,93.63
2019-01-09T09:54:41.767Z,94.15
2019-01-09T09:55:41.768Z,93.95
2019-01-09T09:56:41.867Z,94.09
2019-01-09T09:57:41.752Z,93.63
2019-01-09T09:58:41.732Z,93.84
2019-01-09T09:59:43.609Z,93.22
2019-01-09T10:00:41.686Z,93.84
2019-01-09T10:01:41.718Z,92.66
2019-01-09T10:02:41.671Z,92.97
2019-01-09T10:03:41.798Z,92.86
2019-01-09T10:04:41.650Z,94.11
2019-01-09T10:05:41.694Z,93.38
2019-01-09T10:06:41.642Z,92.35
2019-01-09T10:07:41.621Z,92.93
2019-01-09T10:08:41.615Z,91.78
2019-01-09T10:09:41.594Z,92.66
2019-01-09T10:10:41.580Z,92.72
2019-01-09T10:11:41.577Z,93.13
2019-01-09T10:12:41.554Z,90.70
2019-01-09T10:13:41.562Z,90.91
2019-01-09T10:14:41.538Z,91.28
2019-01-09T10:15:41.560Z,91.86
2019-01-09T10:16:41.532Z,91.66
2019-01-09T10:17:41.517Z,90.06
2019-01-09T10:18:41.496Z,91.09
2019-01-09T10:19:41.483Z,89.96
2019-01-09T10:20:41.522Z,89.23
2019-01-09T10:21:41.460Z,90.20
2019-01-09T10:22:41.445Z,90.47
2019-01-09T10:23:41.478Z,89.07
2019-01-09T10:24:41.446Z,88.86
2019-01-09T10:25:41.423Z,90.31
2019-01-09T10:26:41.457Z,90.25
2019-01-09T10:27:41.425Z,90.62
2019-01-09T10:28:41.437Z,90.37
2019-01-09T10:29:41.396Z,89.75
2019-01-09T10:30:41.362Z,89.07
2019-01-09T10:31:41.342Z,89.17
2019-01-09T10:32:41.351Z,90.10
2019-01-09T10:33:41.357Z,87.88
2019-01-09T10:34:41.359Z,87.06
2019-01-09T10:35:41.308Z,86.89
2019-01-09T10:36:41.368Z,88.20
2019-01-09T10:37:41.308Z,88.61
2019-01-09T10:38:41.285Z,88.86
2019-01-09T10:39:41.312Z,87.51
2019-01-09T10:40:41.274Z,87.93
2019-01-09T10:41:41.241Z,88.13
2019-01-09T10:42:41.248Z,86.99
2019-01-09T10:43:41.218Z,88.03
2019-01-09T10:44:41.228Z,87.99
2019-01-09T10:45:41.228Z,88.30
2019-01-09T10:46:41.231Z,88.61
2019-01-09T10:47:41.192Z,88.34
2019-01-09T10:48:41.175Z,88.55
2019-01-09T10:49:41.183Z,88.34
2019-01-09T10:50:41.167Z,88.59
2019-01-09T10:51:41.158Z,89.11
2019-01-09T10:52:41.127Z,88.94
2019-01-09T10:53:41.147Z,89.36
2019-01-09T10:54:41.108Z,89.77
2019-01-09T10:55:41.084Z,90.64
2019-01-09T10:56:41.114Z,90.19
2019-01-09T10:57:41.078Z,90.12
2019-01-09T10:58:41.075Z,89.81
2019-01-09T10:59:41.059Z,90.44
2019-01-09T11:00:41.037Z,89.29
2019-01-09T11:01:41.034Z,89.77
2019-01-09T11:02:41.020Z,89.15
2019-01-09T11:03:41.026Z,90.39
2019-01-09T11:04:40.997Z,90.39
2019-01-09T11:05:40.986Z,88.84
2019-01-09T11:06:40.973Z,89.87
2019-01-09T11:07:40.969Z,90.50
2019-01-09T11:08:46.828Z,90.60
2019-01-09T11:09:41.953Z,90.39
2019-01-09T11:10:40.933Z,90.08
2019-01-09T11:11:40.922Z,89.50
2019-01-09T11:12:40.927Z,90.54
2019-01-09T11:13:40.958Z,90.44
2019-01-09T11:14:40.919Z,90.23
2019-01-09T11:15:40.874Z,90.33
2019-01-09T11:16:40.879Z,90.23
2019-01-09T11:17:40.862Z,89.81
2019-01-09T11:18:40.858Z,90.23
2019-01-09T11:19:40.863Z,90.44
2019-01-09T11:20:40.829Z,90.44
2019-01-09T11:21:40.822Z,90.33
2019-01-09T11:22:40.821Z,90.23
2019-01-09T11:23:40.797Z,90.64
2019-01-09T11:24:40.795Z,91.27
2019-01-09T11:25:40.787Z,91.27
2019-01-09T11:26:40.753Z,90.23
2019-01-09T11:27:40.776Z,91.16
2019-01-09T11:28:40.786Z,91.37
2019-01-09T11:29:40.753Z,92.20
2019-01-09T11:30:40.772Z,90.33
2019-01-09T11:31:40.730Z,90.79
2019-01-09T11:32:40.739Z,91.99
2019-01-09T11:33:40.683Z,92.10
2019-01-09T11:34:40.698Z,91.99
2019-01-09T11:35:40.697Z,91.00
2019-01-09T11:36:40.648Z,91.41
2019-01-09T11:37:40.655Z,90.33
2019-01-09T11:38:40.643Z,90.58
2019-01-09T11:39:40.617Z,91.31
2019-01-09T11:40:40.608Z,91.31
2019-01-09T11:41:40.612Z,90.85
2019-01-09T11:42:40.646Z,91.83
2019-01-09T11:43:40.586Z,91.10
2019-01-09T11:44:40.565Z,91.52
2019-01-09T11:45:40.576Z,91.93
2019-01-09T11:46:40.558Z,91.31
2019-01-09T11:47:40.538Z,91.52
2019-01-09T11:48:40.549Z,91.31
2019-01-09T11:49:40.522Z,91.20
2019-01-09T11:50:40.505Z,91.10
2019-01-09T11:51:40.503Z,90.69
2019-01-09T11:52:40.488Z,92.07
2019-01-09T11:53:40.474Z,91.83
2019-01-09T11:54:41.694Z,91.31
2019-01-09T11:55:40.473Z,90.52
2019-01-09T11:56:40.452Z,90.41
2019-01-09T11:57:40.423Z,90.62
2019-01-09T11:58:40.415Z,89.79
2019-01-09T11:59:40.428Z,89.96
2019-01-09T12:00:40.396Z,90.37
2019-01-09T12:01:40.416Z,90.89
2019-01-09T12:02:40.401Z,90.69
2019-01-09T12:03:40.383Z,90.17
2019-01-09T12:04:40.465Z,89.03
2019-01-09T12:05:40.343Z,88.57
2019-01-09T12:06:40.358Z,87.53
2019-01-09T12:07:40.319Z,87.01
2019-01-09T12:08:40.333Z,86.29
2019-01-09T12:09:40.354Z,85.14
2019-01-09T12:10:40.292Z,85.97
2019-01-09T12:11:40.286Z,86.29
2019-01-09T12:12:40.276Z,85.25
2019-01-09T12:13:40.264Z,84.73
2019-01-09T12:14:40.246Z,83.90
2019-01-09T12:15:40.252Z,82.86
2019-01-09T12:16:40.223Z,83.03
2019-01-09T12:17:40.219Z,83.90
2019-01-09T12:18:40.189Z,83.80
2019-01-09T12:19:40.174Z,81.72
2019-01-09T12:20:40.179Z,81.37
2019-01-09T12:21:40.176Z,82.62
2019-01-09T12:22:40.174Z,82.45
2019-01-09T12:23:40.141Z,78.89
2019-01-09T12:24:40.127Z,80.54
2019-01-09T12:25:40.125Z,79.61
2019-01-09T12:26:40.105Z,79.71
2019-01-09T12:27:40.134Z,79.51
2019-01-09T12:28:40.109Z,78.89
2019-01-09T12:29:40.102Z,79.10
2019-01-09T12:30:40.078Z,78.16
2019-01-09T12:31:40.071Z,78.37
2019-01-09T12:32:40.041Z,78.89
2019-01-09T12:33:40.048Z,78.06
2019-01-09T12:34:40.033Z,76.92
2019-01-09T12:35:40.014Z,77.64
2019-01-09T12:36:40.054Z,76.81
2019-01-09T12:37:39.999Z,77.23
2019-01-09T12:38:39.974Z,77.02
2019-01-09T12:39:39.982Z,78.68
2019-01-09T12:40:39.960Z,78.89
2019-01-09T12:41:39.946Z,78.47
2019-01-09T12:42:39.948Z,76.46
2019-01-09T12:43:40.062Z,76.88
2019-01-09T12:44:40.039Z,75.67
2019-01-09T12:45:39.936Z,75.88
2019-01-09T12:46:39.900Z,75.63
2019-01-09T12:47:39.879Z,77.29
2019-01-09T12:48:39.873Z,75.63
2019-01-09T12:49:39.870Z,75.53
2019-01-09T12:50:39.849Z,75.12
2019-01-09T12:51:39.846Z,75.43
2019-01-09T12:52:39.827Z,75.43